createdAt,value
2019-04-07T00:00:09.807Z,21.33
2019-04-07T00:01:10.275Z,21.27
2019-04-07T00:02:09.784Z,21.40
2019-04-07T00:03:09.782Z,21.32
2019-04-07T00:04:09.770Z,21.33
2019-04-07T00:05:13.975Z,21.25
2019-04-07T00:06:09.744Z,21.33
2019-04-07T00:07:10.255Z,21.33
2019-04-07T00:08:10.128Z,21.30
2019-04-07T00:09:09.760Z,21.30
2019-04-07T00:10:09.908Z,21.33
2019-04-07T00:11:09.685Z,21.27
2019-04-07T00:12:09.678Z,21.32
2019-04-07T00:13:10.056Z,21.32
2019-04-07T00:14:09.663Z,21.29
2019-04-07T00:15:10.373Z,21.35
2019-04-07T00:16:09.829Z,21.30
2019-04-07T00:17:09.623Z,21.30
2019-04-07T00:18:10.311Z,21.35
2019-04-07T00:19:09.841Z,21.39
2019-04-07T00:20:09.820Z,21.37
2019-04-07T00:21:09.990Z,21.43
2019-04-07T00:22:10.208Z,21.35
2019-04-07T00:23:09.623Z,21.36
2019-04-07T00:24:09.547Z,21.37
2019-04-07T00:25:09.545Z,21.35
2019-04-07T00:26:09.756Z,21.37
2019-04-07T00:27:10.177Z,21.37
2019-04-07T00:28:10.051Z,21.33
2019-04-07T00:29:09.745Z,21.37
2019-04-07T00:30:09.483Z,21.36
2019-04-07T00:31:09.478Z,21.36
2019-04-07T00:32:09.480Z,21.30
2019-04-07T00:33:09.464Z,21.25
2019-04-07T00:34:09.641Z,21.35
2019-04-07T00:35:21.069Z,21.33
2019-04-07T00:36:10.431Z,21.35
2019-04-07T00:37:09.419Z,21.36
2019-04-07T00:38:09.612Z,21.33
2019-04-07T00:39:09.497Z,21.22
2019-04-07T00:40:09.637Z,21.27
2019-04-07T00:41:09.544Z,21.33
2019-04-07T00:42:10.476Z,21.37
2019-04-07T00:43:09.970Z,21.33
2019-04-07T00:44:09.336Z,21.25
2019-04-07T00:45:09.775Z,21.27
2019-04-07T00:46:09.323Z,21.20
2019-04-07T00:47:09.453Z,21.24
2019-04-07T00:48:09.295Z,21.27
2019-04-07T00:49:09.502Z,21.40
2019-04-07T00:50:09.268Z,21.25
2019-04-07T00:51:09.263Z,21.29
2019-04-07T00:52:09.436Z,21.39
2019-04-07T00:53:09.815Z,21.22
2019-04-07T00:54:09.301Z,21.32
2019-04-07T00:55:09.926Z,21.30
2019-04-07T00:56:09.390Z,21.24
2019-04-07T00:57:09.829Z,21.30
2019-04-07T00:58:09.184Z,21.35
2019-04-07T00:59:09.172Z,21.33
2019-04-07T01:00:09.644Z,21.25
2019-04-07T01:01:09.154Z,21.29
2019-04-07T01:02:09.152Z,21.32
2019-04-07T01:03:09.497Z,21.32
2019-04-07T01:04:09.123Z,21.33
2019-04-07T01:05:09.109Z,21.29
2019-04-07T01:06:09.750Z,21.22
2019-04-07T01:07:09.161Z,21.25
2019-04-07T01:08:09.698Z,21.29
2019-04-07T01:09:09.158Z,21.29
2019-04-07T01:10:09.670Z,21.25
2019-04-07T01:11:09.045Z,21.30
2019-04-07T01:12:09.414Z,21.32
2019-04-07T01:13:09.265Z,21.33
2019-04-07T01:14:09.332Z,21.35
2019-04-07T01:15:09.007Z,21.32
2019-04-07T01:16:08.991Z,21.30
2019-04-07T01:17:08.985Z,21.32
2019-04-07T01:18:08.970Z,21.30
2019-04-07T01:19:08.972Z,21.32
2019-04-07T01:20:09.045Z,21.33
2019-04-07T01:21:09.459Z,21.32
2019-04-07T01:22:09.050Z,21.32
2019-04-07T01:23:08.914Z,21.25
2019-04-07T01:24:08.910Z,21.24
2019-04-07T01:25:09.006Z,21.32
2019-04-07T01:26:09.683Z,21.33
2019-04-07T01:27:09.265Z,21.30
2019-04-07T01:28:08.858Z,21.25
2019-04-07T01:29:09.217Z,21.24
2019-04-07T01:30:09.438Z,21.30
2019-04-07T01:31:08.867Z,21.27
2019-04-07T01:32:08.861Z,21.27
2019-04-07T01:33:08.807Z,21.27
2019-04-07T01:34:08.797Z,21.29
2019-04-07T01:35:08.791Z,21.30
2019-04-07T01:36:09.464Z,21.27
2019-04-07T01:37:08.859Z,21.27
2019-04-07T01:38:08.764Z,21.25
2019-04-07T01:39:08.754Z,21.33
2019-04-07T01:40:09.090Z,21.24
2019-04-07T01:41:09.819Z,21.27
2019-04-07T01:42:09.163Z,21.33
2019-04-07T01:43:09.221Z,21.22
2019-04-07T01:44:08.989Z,21.29
2019-04-07T01:45:08.891Z,21.32
2019-04-07T01:46:08.912Z,21.27
2019-04-07T01:47:08.903Z,21.30
2019-04-07T01:48:08.802Z,21.21
2019-04-07T01:49:10.130Z,21.24
2019-04-07T01:50:08.637Z,21.30
2019-04-07T01:51:09.091Z,21.29
2019-04-07T01:52:08.612Z,21.29
2019-04-07T01:53:08.875Z,21.25
2019-04-07T01:54:08.664Z,21.25
2019-04-07T01:55:09.168Z,21.32
2019-04-07T01:56:08.577Z,21.27
2019-04-07T01:57:09.208Z,21.24
2019-04-07T01:58:08.550Z,21.32
2019-04-07T01:59:10.589Z,21.25
2019-04-07T02:00:08.515Z,21.32
2019-04-07T02:01:08.528Z,21.33
2019-04-07T02:02:08.493Z,21.21
2019-04-07T02:03:08.486Z,21.22
2019-04-07T02:04:09.324Z,21.22
2019-04-07T02:05:08.461Z,21.32
2019-04-07T02:06:08.453Z,21.24
2019-04-07T02:07:08.443Z,21.25
2019-04-07T02:08:08.660Z,21.22
2019-04-07T02:09:08.421Z,21.29
2019-04-07T02:10:08.708Z,21.25
2019-04-07T02:11:08.396Z,21.25
2019-04-07T02:12:08.386Z,21.22
2019-04-07T02:13:08.561Z,21.32
2019-04-07T02:14:08.677Z,21.29
2019-04-07T02:15:08.540Z,21.32
2019-04-07T02:16:08.364Z,21.24
2019-04-07T02:17:08.333Z,21.22
2019-04-07T02:18:08.323Z,21.30
2019-04-07T02:19:08.725Z,21.22
2019-04-07T02:20:08.323Z,21.25
2019-04-07T02:21:08.500Z,21.29
2019-04-07T02:22:08.479Z,21.29
2019-04-07T02:23:08.566Z,21.18
2019-04-07T02:24:08.261Z,21.27
2019-04-07T02:25:08.254Z,21.25
2019-04-07T02:26:08.237Z,21.25
2019-04-07T02:27:08.583Z,21.22
2019-04-07T02:28:08.214Z,21.32
2019-04-07T02:29:08.205Z,21.25
2019-04-07T02:30:08.196Z,21.25
2019-04-07T02:31:08.311Z,21.22
2019-04-07T02:32:08.178Z,21.24
2019-04-07T02:33:08.480Z,21.25
2019-04-07T02:34:08.159Z,21.27
2019-04-07T02:35:08.745Z,21.25
2019-04-07T02:36:17.796Z,21.25
2019-04-07T02:37:09.927Z,21.22
2019-04-07T02:38:08.292Z,21.22
2019-04-07T02:39:09.143Z,21.24
2019-04-07T02:40:09.561Z,21.24
2019-04-07T02:41:09.054Z,21.20
2019-04-07T02:42:08.806Z,21.30
2019-04-07T02:43:08.517Z,21.30
2019-04-07T02:44:09.210Z,21.25
2019-04-07T02:45:08.935Z,21.25
2019-04-07T02:46:08.022Z,21.22
2019-04-07T02:47:08.424Z,21.21
2019-04-07T02:48:08.001Z,21.17
2019-04-07T02:49:08.246Z,21.24
2019-04-07T02:50:07.985Z,21.33
2019-04-07T02:51:07.988Z,21.17
2019-04-07T02:52:09.019Z,21.18
2019-04-07T02:53:07.947Z,21.22
2019-04-07T02:54:07.955Z,21.24
2019-04-07T02:55:08.454Z,21.22
2019-04-07T02:56:08.269Z,21.22
2019-04-07T02:57:08.029Z,21.22
2019-04-07T02:58:08.726Z,21.25
2019-04-07T02:59:07.961Z,21.25
2019-04-07T03:00:07.887Z,21.20
2019-04-07T03:01:07.873Z,21.21
2019-04-07T03:02:08.209Z,21.22
2019-04-07T03:03:08.752Z,21.25
2019-04-07T03:04:07.847Z,21.21
2019-04-07T03:05:08.182Z,21.20
2019-04-07T03:06:07.816Z,21.25
2019-04-07T03:07:07.803Z,21.17
2019-04-07T03:08:08.945Z,21.18
2019-04-07T03:09:08.790Z,21.27
2019-04-07T03:10:08.746Z,21.18
2019-04-07T03:11:07.760Z,21.22
2019-04-07T03:12:07.743Z,21.15
2019-04-07T03:13:07.738Z,21.25
2019-04-07T03:14:07.722Z,21.20
2019-04-07T03:15:07.711Z,21.22
2019-04-07T03:16:07.754Z,21.27
2019-04-07T03:17:08.268Z,21.21
2019-04-07T03:18:07.694Z,21.20
2019-04-07T03:19:07.847Z,21.22
2019-04-07T03:20:07.658Z,21.24
2019-04-07T03:21:07.740Z,21.22
2019-04-07T03:22:08.463Z,21.17
2019-04-07T03:23:07.631Z,21.20
2019-04-07T03:24:08.053Z,21.22
2019-04-07T03:25:07.608Z,21.20
2019-04-07T03:26:07.960Z,21.21
2019-04-07T03:27:08.046Z,21.22
2019-04-07T03:28:07.577Z,21.18
2019-04-07T03:29:07.563Z,21.25
2019-04-07T03:30:09.050Z,21.18
2019-04-07T03:31:07.965Z,21.20
2019-04-07T03:32:08.633Z,21.17
2019-04-07T03:33:11.151Z,21.21
2019-04-07T03:34:09.742Z,21.21
2019-04-07T03:35:07.630Z,21.21
2019-04-07T03:36:10.708Z,21.15
2019-04-07T03:37:22.936Z,21.18
2019-04-07T03:38:08.462Z,21.22
2019-04-07T03:39:07.468Z,21.18
2019-04-07T03:40:08.305Z,21.20
2019-04-07T03:41:08.360Z,21.17
2019-04-07T03:42:08.519Z,21.20
2019-04-07T03:43:07.432Z,21.21
2019-04-07T03:44:07.801Z,21.22
2019-04-07T03:45:08.253Z,21.17
2019-04-07T03:46:08.080Z,21.20
2019-04-07T03:47:07.380Z,21.20
2019-04-07T03:48:08.390Z,21.20
2019-04-07T03:49:07.384Z,21.21
2019-04-07T03:50:07.341Z,21.21
2019-04-07T03:51:07.346Z,21.17
2019-04-07T03:52:07.325Z,21.18
2019-04-07T03:53:08.123Z,21.18
2019-04-07T03:54:07.333Z,21.21
2019-04-07T03:55:07.297Z,21.20
2019-04-07T03:56:08.114Z,21.18
2019-04-07T03:57:07.271Z,21.09
2019-04-07T03:58:08.038Z,21.17
2019-04-07T03:59:07.635Z,21.20
2019-04-07T04:00:07.227Z,21.15
2019-04-07T04:01:08.199Z,21.15
2019-04-07T04:02:07.978Z,21.15
2019-04-07T04:03:07.197Z,21.17
2019-04-07T04:04:07.418Z,21.15
2019-04-07T04:05:07.175Z,21.15
2019-04-07T04:06:07.163Z,21.17
2019-04-07T04:07:20.206Z,21.15
2019-04-07T04:08:08.151Z,21.15
2019-04-07T04:09:08.233Z,21.17
2019-04-07T04:10:07.136Z,21.20
2019-04-07T04:11:07.106Z,21.14
2019-04-07T04:12:07.215Z,21.14
2019-04-07T04:13:07.131Z,21.17
2019-04-07T04:14:07.787Z,21.15
2019-04-07T04:15:07.089Z,21.18
2019-04-07T04:16:07.955Z,21.17
2019-04-07T04:17:07.052Z,21.17
2019-04-07T04:18:07.035Z,21.05
2019-04-07T04:19:07.029Z,21.15
2019-04-07T04:20:07.016Z,21.15
2019-04-07T04:21:07.086Z,21.14
2019-04-07T04:22:07.407Z,21.11
2019-04-07T04:23:07.795Z,21.18
2019-04-07T04:24:08.222Z,21.09
2019-04-07T04:25:06.967Z,21.14
2019-04-07T04:26:06.944Z,21.18
2019-04-07T04:27:06.954Z,21.11
2019-04-07T04:28:07.825Z,21.11
2019-04-07T04:29:06.914Z,21.11
2019-04-07T04:30:07.026Z,21.15
2019-04-07T04:31:06.890Z,21.14
2019-04-07T04:32:07.706Z,21.12
2019-04-07T04:33:06.869Z,21.11
2019-04-07T04:34:06.866Z,21.14
2019-04-07T04:35:06.850Z,21.22
2019-04-07T04:36:07.976Z,21.17
2019-04-07T04:37:06.826Z,21.15
2019-04-07T04:38:06.818Z,21.07
2019-04-07T04:39:08.116Z,21.15
2019-04-07T04:40:07.292Z,21.11
2019-04-07T04:41:06.954Z,21.14
2019-04-07T04:42:07.091Z,21.21
2019-04-07T04:43:06.767Z,21.15
2019-04-07T04:44:06.759Z,21.15
2019-04-07T04:45:06.743Z,21.20
2019-04-07T04:46:09.565Z,21.15
2019-04-07T04:47:06.719Z,21.22
2019-04-07T04:48:06.876Z,21.15
2019-04-07T04:49:06.787Z,21.09
2019-04-07T04:50:07.958Z,21.15
2019-04-07T04:51:06.782Z,21.14
2019-04-07T04:52:07.116Z,21.15
2019-04-07T04:53:06.654Z,21.12
2019-04-07T04:54:07.077Z,21.09
2019-04-07T04:55:07.188Z,21.14
2019-04-07T04:56:07.529Z,21.14
2019-04-07T04:57:08.931Z,21.15
2019-04-07T04:58:07.279Z,21.14
2019-04-07T04:59:07.453Z,21.17
2019-04-07T05:00:06.580Z,21.12
2019-04-07T05:01:06.590Z,21.22
2019-04-07T05:02:06.560Z,21.17
2019-04-07T05:03:07.180Z,21.18
2019-04-07T05:04:07.370Z,21.20
2019-04-07T05:05:09.201Z,21.15
2019-04-07T05:06:06.713Z,21.14
2019-04-07T05:07:06.522Z,21.11
2019-04-07T05:08:06.883Z,21.15
2019-04-07T05:09:06.879Z,21.18
2019-04-07T05:10:06.867Z,21.14
2019-04-07T05:11:06.866Z,21.09
2019-04-07T05:12:06.887Z,21.18
2019-04-07T05:13:07.238Z,21.11
2019-04-07T05:14:07.116Z,21.12
2019-04-07T05:15:06.423Z,21.15
2019-04-07T05:16:07.081Z,21.18
2019-04-07T05:17:06.400Z,21.18
2019-04-07T05:18:06.493Z,21.20
2019-04-07T05:19:06.378Z,21.17
2019-04-07T05:20:06.831Z,21.18
2019-04-07T05:21:06.353Z,21.14
2019-04-07T05:22:07.103Z,21.24
2019-04-07T05:23:06.331Z,21.17
2019-04-07T05:24:06.856Z,21.11
2019-04-07T05:25:06.988Z,21.15
2019-04-07T05:26:06.950Z,21.24
2019-04-07T05:27:06.463Z,21.17
2019-04-07T05:28:06.289Z,21.22
2019-04-07T05:29:06.274Z,21.21
2019-04-07T05:30:06.666Z,21.18
2019-04-07T05:31:07.253Z,21.17
2019-04-07T05:32:06.905Z,21.18
2019-04-07T05:33:06.224Z,21.22
2019-04-07T05:34:06.615Z,21.18
2019-04-07T05:35:06.204Z,21.27
2019-04-07T05:36:06.213Z,21.25
2019-04-07T05:37:06.552Z,21.20
2019-04-07T05:38:07.638Z,21.27
2019-04-07T05:39:06.523Z,21.15
2019-04-07T05:40:06.268Z,21.25
2019-04-07T05:41:06.514Z,21.24
2019-04-07T05:42:06.131Z,21.22
2019-04-07T05:43:06.338Z,21.18
2019-04-07T05:44:06.332Z,21.21
2019-04-07T05:45:06.582Z,21.18
2019-04-07T05:46:08.058Z,21.27
2019-04-07T05:47:06.124Z,21.21
2019-04-07T05:48:06.446Z,21.24
2019-04-07T05:49:06.643Z,21.25
2019-04-07T05:50:06.211Z,21.18
2019-04-07T05:51:07.136Z,21.24
2019-04-07T05:52:06.705Z,21.27
2019-04-07T05:53:09.502Z,21.25
2019-04-07T05:54:05.999Z,21.29
2019-04-07T05:55:06.007Z,21.29
2019-04-07T05:56:06.122Z,21.24
2019-04-07T05:57:05.967Z,21.25
2019-04-07T05:58:08.174Z,21.32
2019-04-07T05:59:07.951Z,21.30
2019-04-07T06:00:06.568Z,21.25
2019-04-07T06:01:06.351Z,21.30
2019-04-07T06:02:05.925Z,21.24
2019-04-07T06:03:08.363Z,21.32
2019-04-07T06:04:06.652Z,21.33
2019-04-07T06:05:06.570Z,21.33
2019-04-07T06:06:05.871Z,21.30
2019-04-07T06:07:05.930Z,21.29
2019-04-07T06:08:21.262Z,21.37
2019-04-07T06:09:07.226Z,21.42
2019-04-07T06:10:05.846Z,21.37
2019-04-07T06:11:06.195Z,21.48
2019-04-07T06:12:07.998Z,21.45
2019-04-07T06:13:05.796Z,21.50
2019-04-07T06:14:05.811Z,21.54
2019-04-07T06:15:06.268Z,21.51
2019-04-07T06:16:05.813Z,21.50
2019-04-07T06:17:06.487Z,21.55
2019-04-07T06:18:05.743Z,21.48
2019-04-07T06:19:07.984Z,21.46
2019-04-07T06:20:05.722Z,21.52
2019-04-07T06:21:06.092Z,21.48
2019-04-07T06:22:07.579Z,21.52
2019-04-07T06:23:06.193Z,21.50
2019-04-07T06:24:05.677Z,21.48
2019-04-07T06:25:06.166Z,21.48
2019-04-07T06:26:09.312Z,21.35
2019-04-07T06:27:06.645Z,21.40
2019-04-07T06:28:05.635Z,21.39
2019-04-07T06:29:05.954Z,21.33
2019-04-07T06:30:05.624Z,21.35
2019-04-07T06:31:06.522Z,21.39
2019-04-07T06:32:09.159Z,21.35
2019-04-07T06:33:07.258Z,21.39
2019-04-07T06:34:08.683Z,21.32
2019-04-07T06:35:05.587Z,21.27
2019-04-07T06:36:05.576Z,21.43
2019-04-07T06:37:05.685Z,21.33
2019-04-07T06:38:07.880Z,21.40
2019-04-07T06:39:05.523Z,21.51
2019-04-07T06:40:05.639Z,21.50
2019-04-07T06:41:06.124Z,21.50
2019-04-07T06:42:05.902Z,21.48
2019-04-07T06:43:06.356Z,21.45
2019-04-07T06:44:11.273Z,21.46
2019-04-07T06:45:06.453Z,21.51
2019-04-07T06:46:06.089Z,21.46
2019-04-07T06:47:05.433Z,21.50
2019-04-07T06:48:08.314Z,21.51
2019-04-07T06:49:05.928Z,21.50
2019-04-07T06:50:05.765Z,21.40
2019-04-07T06:51:06.048Z,21.37
2019-04-07T06:52:05.464Z,21.39
2019-04-07T06:53:05.503Z,21.42
2019-04-07T06:54:05.840Z,21.33
2019-04-07T06:55:05.506Z,21.30
2019-04-07T06:56:06.017Z,21.35
2019-04-07T06:57:06.438Z,21.33
2019-04-07T06:58:07.539Z,21.36
2019-04-07T06:59:05.730Z,21.40
2019-04-07T07:00:08.094Z,21.33
2019-04-07T07:01:05.828Z,21.39
2019-04-07T07:02:05.517Z,21.25
2019-04-07T07:03:05.261Z,21.30
2019-04-07T07:04:08.595Z,21.30
2019-04-07T07:05:06.245Z,21.35
2019-04-07T07:06:05.698Z,21.30
2019-04-07T07:07:06.506Z,21.22
2019-04-07T07:08:05.229Z,21.33
2019-04-07T07:09:05.197Z,21.20
2019-04-07T07:10:06.523Z,21.35
2019-04-07T07:11:07.694Z,21.33
2019-04-07T07:12:05.206Z,21.27
2019-04-07T07:13:09.694Z,21.22
2019-04-07T07:14:07.801Z,21.24
2019-04-07T07:15:05.152Z,21.27
2019-04-07T07:16:07.889Z,21.21
2019-04-07T07:17:06.338Z,21.29
2019-04-07T07:18:05.160Z,21.29
2019-04-07T07:19:05.240Z,21.24
2019-04-07T07:20:05.939Z,21.29
2019-04-07T07:21:05.125Z,21.30
2019-04-07T07:22:10.045Z,21.27
2019-04-07T07:23:06.048Z,21.24
2019-04-07T07:24:05.061Z,21.27
2019-04-07T07:25:05.235Z,21.29
2019-04-07T07:26:05.015Z,21.29
2019-04-07T07:27:07.276Z,21.24
2019-04-07T07:28:05.005Z,21.29
2019-04-07T07:29:06.436Z,21.30
2019-04-07T07:30:05.564Z,21.27
2019-04-07T07:31:05.384Z,21.24
2019-04-07T07:32:04.985Z,21.27
2019-04-07T07:33:07.473Z,21.20
2019-04-07T07:34:09.299Z,21.25
2019-04-07T07:35:05.100Z,21.18
2019-04-07T07:36:04.907Z,21.29
2019-04-07T07:37:05.234Z,21.27
2019-04-07T07:38:04.952Z,21.30
2019-04-07T07:39:08.584Z,21.24
2019-04-07T07:40:08.455Z,21.32
2019-04-07T07:41:04.887Z,21.27
2019-04-07T07:42:04.841Z,21.24
2019-04-07T07:43:05.492Z,21.30
2019-04-07T07:44:07.638Z,21.29
2019-04-07T07:45:08.240Z,21.30
2019-04-07T07:46:06.754Z,21.27
2019-04-07T07:47:04.806Z,21.30
2019-04-07T07:48:05.354Z,21.25
2019-04-07T07:49:04.768Z,21.25
2019-04-07T07:50:05.418Z,21.24
2019-04-07T07:51:07.176Z,21.30
2019-04-07T07:52:04.965Z,21.30
2019-04-07T07:53:04.789Z,21.35
2019-04-07T07:54:04.771Z,21.33
2019-04-07T07:55:05.740Z,21.29
2019-04-07T07:56:08.401Z,21.39
2019-04-07T07:57:05.686Z,21.39
2019-04-07T07:58:04.674Z,21.33
2019-04-07T07:59:04.688Z,21.33
2019-04-07T08:00:06.950Z,21.40
2019-04-07T08:01:05.344Z,21.43
2019-04-07T08:02:04.632Z,21.35
2019-04-07T08:03:04.871Z,21.50
2019-04-07T08:04:05.250Z,21.50
2019-04-07T08:05:04.594Z,21.48
2019-04-07T08:06:07.971Z,21.48
2019-04-07T08:07:05.429Z,21.58
2019-04-07T08:08:04.797Z,21.52
2019-04-07T08:09:11.947Z,21.55
2019-04-07T08:10:05.539Z,21.66
2019-04-07T08:11:04.638Z,21.70
2019-04-07T08:12:05.163Z,21.64
2019-04-07T08:13:07.473Z,21.70
2019-04-07T08:14:04.498Z,21.70
2019-04-07T08:15:04.910Z,21.72
2019-04-07T08:16:05.086Z,21.82
2019-04-07T08:17:04.470Z,21.85
2019-04-07T08:18:07.182Z,21.96
2019-04-07T08:19:04.457Z,22.02
2019-04-07T08:20:04.439Z,21.99
2019-04-07T08:21:04.430Z,22.20
2019-04-07T08:22:06.453Z,22.23
2019-04-07T08:23:05.239Z,22.28
2019-04-07T08:24:04.399Z,22.41
2019-04-07T08:25:05.213Z,22.45
2019-04-07T08:26:04.969Z,22.55
2019-04-07T08:27:05.142Z,22.62
2019-04-07T08:28:04.713Z,22.78
2019-04-07T08:29:06.822Z,22.93
2019-04-07T08:30:06.995Z,23.00
2019-04-07T08:31:05.553Z,23.06
2019-04-07T08:32:04.314Z,23.13
2019-04-07T08:33:04.880Z,23.34
2019-04-07T08:34:04.290Z,23.39
2019-04-07T08:35:05.605Z,23.39
2019-04-07T08:36:04.401Z,23.51
2019-04-07T08:37:04.814Z,23.65
2019-04-07T08:38:04.600Z,23.68
2019-04-07T08:39:04.972Z,23.71
2019-04-07T08:40:07.151Z,23.78
2019-04-07T08:41:04.238Z,23.77
2019-04-07T08:42:09.583Z,23.74
2019-04-07T08:43:06.054Z,23.88
2019-04-07T08:44:04.267Z,23.76
2019-04-07T08:45:04.631Z,23.80
2019-04-07T08:46:05.048Z,23.73
2019-04-07T08:47:04.144Z,23.63
2019-04-07T08:48:04.197Z,23.73
2019-04-07T08:49:04.130Z,23.68
2019-04-07T08:50:04.118Z,23.63
2019-04-07T08:51:04.720Z,23.56
2019-04-07T08:52:08.421Z,23.43
2019-04-07T08:53:05.088Z,23.32
2019-04-07T08:54:04.717Z,23.37
2019-04-07T08:55:04.058Z,23.28
2019-04-07T08:56:06.731Z,23.34
2019-04-07T08:57:04.600Z,23.24
2019-04-07T08:58:05.595Z,23.17
2019-04-07T08:59:04.031Z,23.15
2019-04-07T09:00:04.040Z,23.20
2019-04-07T09:01:04.009Z,23.10
2019-04-07T09:02:04.294Z,23.10
2019-04-07T09:03:09.732Z,23.10
2019-04-07T09:04:05.603Z,23.08
2019-04-07T09:05:04.447Z,23.09
2019-04-07T09:06:04.712Z,23.18
2019-04-07T09:07:04.373Z,23.10
2019-04-07T09:08:06.001Z,23.21
2019-04-07T09:09:07.075Z,23.24
2019-04-07T09:10:03.892Z,23.18
2019-04-07T09:11:04.614Z,23.31
2019-04-07T09:12:03.882Z,23.36
2019-04-07T09:13:07.975Z,23.44
2019-04-07T09:14:06.438Z,23.59
2019-04-07T09:15:05.213Z,23.66
2019-04-07T09:16:04.658Z,23.74
2019-04-07T09:17:04.565Z,23.99
2019-04-07T09:18:04.420Z,24.13
2019-04-07T09:19:06.923Z,24.21
2019-04-07T09:20:07.571Z,24.32
2019-04-07T09:21:04.772Z,24.45
2019-04-07T09:22:03.763Z,24.60
2019-04-07T09:23:04.604Z,24.60
2019-04-07T09:24:03.856Z,24.76
2019-04-07T09:25:08.146Z,24.98
2019-04-07T09:26:05.461Z,24.95
2019-04-07T09:27:03.719Z,24.91
2019-04-07T09:28:03.730Z,25.07
2019-04-07T09:29:04.014Z,24.99
2019-04-07T09:30:06.039Z,25.04
2019-04-07T09:31:04.543Z,24.96
2019-04-07T09:32:04.366Z,24.86
2019-04-07T09:33:05.959Z,24.76
2019-04-07T09:34:05.238Z,24.68
2019-04-07T09:35:05.671Z,24.66
2019-04-07T09:36:03.701Z,24.50
2019-04-07T09:37:04.413Z,24.42
2019-04-07T09:38:03.590Z,24.35
2019-04-07T09:39:04.026Z,24.26
2019-04-07T09:40:05.347Z,24.26
2019-04-07T09:41:03.784Z,24.16
2019-04-07T09:42:04.180Z,24.06
2019-04-07T09:43:04.170Z,23.95
2019-04-07T09:44:03.986Z,23.83
2019-04-07T09:45:07.372Z,23.86
2019-04-07T09:46:04.961Z,23.68
2019-04-07T09:47:04.216Z,23.59
2019-04-07T09:48:04.087Z,23.58
2019-04-07T09:49:03.813Z,23.47
2019-04-07T09:50:03.669Z,23.40
2019-04-07T09:51:06.967Z,23.43
2019-04-07T09:52:03.465Z,23.36
2019-04-07T09:53:03.429Z,23.27
2019-04-07T09:54:04.031Z,23.28
2019-04-07T09:55:03.409Z,23.21
2019-04-07T09:56:03.797Z,23.21
2019-04-07T09:57:06.012Z,23.18
2019-04-07T09:58:03.386Z,23.23
2019-04-07T09:59:03.619Z,23.09
2019-04-07T10:00:03.355Z,23.05
2019-04-07T10:01:05.813Z,23.10
2019-04-07T10:02:06.245Z,23.06
2019-04-07T10:03:07.786Z,23.12
2019-04-07T10:04:07.062Z,23.13
2019-04-07T10:05:03.298Z,23.00
2019-04-07T10:06:03.286Z,23.00
2019-04-07T10:07:03.642Z,23.02
2019-04-07T10:08:03.364Z,22.94
2019-04-07T10:09:03.343Z,22.98
2019-04-07T10:10:10.182Z,23.02
2019-04-07T10:11:04.284Z,22.96
2019-04-07T10:12:03.231Z,22.96
2019-04-07T10:13:03.220Z,22.98
2019-04-07T10:14:03.378Z,22.88
2019-04-07T10:15:03.190Z,22.85
2019-04-07T10:16:05.167Z,22.90
2019-04-07T10:17:03.170Z,22.87
2019-04-07T10:18:04.051Z,22.83
2019-04-07T10:19:03.175Z,22.88
2019-04-07T10:20:03.147Z,22.83
2019-04-07T10:21:03.264Z,22.84
2019-04-07T10:22:03.577Z,22.76
2019-04-07T10:23:03.181Z,22.73
2019-04-07T10:24:03.097Z,22.75
2019-04-07T10:25:03.083Z,22.72
2019-04-07T10:26:04.014Z,22.80
2019-04-07T10:27:03.087Z,22.69
2019-04-07T10:28:03.049Z,22.72
2019-04-07T10:29:04.439Z,22.72
2019-04-07T10:30:03.536Z,22.72
2019-04-07T10:31:03.453Z,22.63
2019-04-07T10:32:03.488Z,22.57
2019-04-07T10:33:03.278Z,22.69
2019-04-07T10:34:03.109Z,22.62
2019-04-07T10:35:02.988Z,22.73
2019-04-07T10:36:02.991Z,22.57
2019-04-07T10:37:04.867Z,22.70
2019-04-07T10:38:03.848Z,22.60
2019-04-07T10:39:03.176Z,22.59
2019-04-07T10:40:03.120Z,22.62
2019-04-07T10:41:02.931Z,22.62
2019-04-07T10:42:02.903Z,22.57
2019-04-07T10:43:03.085Z,22.57
2019-04-07T10:44:02.878Z,22.60
2019-04-07T10:45:03.565Z,22.60
2019-04-07T10:46:02.888Z,22.62
2019-04-07T10:47:03.725Z,22.62
2019-04-07T10:48:02.883Z,22.60
2019-04-07T10:49:04.296Z,22.54
2019-04-07T10:50:07.022Z,22.53
2019-04-07T10:51:04.453Z,22.45
2019-04-07T10:52:02.912Z,22.59
2019-04-07T10:53:02.783Z,22.54
2019-04-07T10:54:02.777Z,22.44
2019-04-07T10:55:02.920Z,22.53
2019-04-07T10:56:02.763Z,22.45
2019-04-07T10:57:03.341Z,22.41
2019-04-07T10:58:03.111Z,22.50
2019-04-07T10:59:03.080Z,22.48
2019-04-07T11:00:03.392Z,22.50
2019-04-07T11:01:03.034Z,22.43
2019-04-07T11:02:02.778Z,22.48
2019-04-07T11:03:03.131Z,22.48
2019-04-07T11:04:02.665Z,22.51
2019-04-07T11:05:02.967Z,22.36
2019-04-07T11:06:02.645Z,22.39
2019-04-07T11:07:03.071Z,22.36
2019-04-07T11:08:02.647Z,22.39
2019-04-07T11:09:02.609Z,22.43
2019-04-07T11:10:02.886Z,22.36
2019-04-07T11:11:03.386Z,22.38
2019-04-07T11:12:03.278Z,22.43
2019-04-07T11:13:03.109Z,22.35
2019-04-07T11:14:02.675Z,22.35
2019-04-07T11:15:02.588Z,22.43
2019-04-07T11:16:02.538Z,22.36
2019-04-07T11:17:02.542Z,22.39
2019-04-07T11:18:03.082Z,22.36
2019-04-07T11:19:03.278Z,22.43
2019-04-07T11:20:02.979Z,22.30
2019-04-07T11:21:03.365Z,22.30
2019-04-07T11:22:02.473Z,22.30
2019-04-07T11:23:02.995Z,22.32
2019-04-07T11:24:03.849Z,22.35
2019-04-07T11:25:02.441Z,22.35
2019-04-07T11:26:02.638Z,22.29
2019-04-07T11:27:02.950Z,22.28
2019-04-07T11:28:02.676Z,22.25
2019-04-07T11:29:02.749Z,22.29
2019-04-07T11:30:02.382Z,22.23
2019-04-07T11:31:02.371Z,22.32
2019-04-07T11:32:02.360Z,22.22
2019-04-07T11:33:02.755Z,22.29
2019-04-07T11:34:03.082Z,22.18
2019-04-07T11:35:02.845Z,22.30
2019-04-07T11:36:02.434Z,22.29
2019-04-07T11:37:02.306Z,22.22
2019-04-07T11:38:02.725Z,22.28
2019-04-07T11:39:02.550Z,22.23
2019-04-07T11:40:02.330Z,22.25
2019-04-07T11:41:02.559Z,22.23
2019-04-07T11:42:04.668Z,22.18
2019-04-07T11:43:02.329Z,22.18
2019-04-07T11:44:02.239Z,22.26
2019-04-07T11:45:03.115Z,22.20
2019-04-07T11:46:03.381Z,22.26
2019-04-07T11:47:02.259Z,22.23
2019-04-07T11:48:02.191Z,22.22
2019-04-07T11:49:02.441Z,22.18
2019-04-07T11:50:02.168Z,22.23
2019-04-07T11:51:03.225Z,22.14
2019-04-07T11:52:02.144Z,22.20
2019-04-07T11:53:02.137Z,22.17
2019-04-07T11:54:02.123Z,22.20
2019-04-07T11:55:02.393Z,22.14
2019-04-07T11:56:06.127Z,22.11
2019-04-07T11:57:03.364Z,22.18
2019-04-07T11:58:11.560Z,22.25
2019-04-07T11:59:03.070Z,22.15
2019-04-07T12:00:02.452Z,22.22
2019-04-07T12:01:02.504Z,22.22
2019-04-07T12:02:03.531Z,22.17
2019-04-07T12:03:02.858Z,22.14
2019-04-07T12:04:02.501Z,22.17
2019-04-07T12:05:02.002Z,22.18
2019-04-07T12:06:02.583Z,22.20
2019-04-07T12:07:02.450Z,22.14
2019-04-07T12:08:02.017Z,22.15
2019-04-07T12:09:02.238Z,22.10
2019-04-07T12:10:01.952Z,22.13
2019-04-07T12:11:04.757Z,22.18
2019-04-07T12:12:02.501Z,22.22
2019-04-07T12:13:01.926Z,22.11
2019-04-07T12:14:01.911Z,22.15
2019-04-07T12:15:02.227Z,22.14
2019-04-07T12:16:02.149Z,22.18
2019-04-07T12:17:05.782Z,22.17
2019-04-07T12:18:03.737Z,22.18
2019-04-07T12:19:01.855Z,22.17
2019-04-07T12:20:01.847Z,22.13
2019-04-07T12:21:04.254Z,22.15
2019-04-07T12:22:02.357Z,22.17
2019-04-07T12:23:01.810Z,22.15
2019-04-07T12:24:03.282Z,22.17
2019-04-07T12:25:04.179Z,22.15
2019-04-07T12:26:04.255Z,22.14
2019-04-07T12:27:02.020Z,22.14
2019-04-07T12:28:01.753Z,22.07
2019-04-07T12:29:02.586Z,22.15
2019-04-07T12:30:02.588Z,22.11
2019-04-07T12:31:02.131Z,22.10
2019-04-07T12:32:02.452Z,22.13
2019-04-07T12:33:05.039Z,22.15
2019-04-07T12:34:02.922Z,22.11
2019-04-07T12:35:01.693Z,22.07
2019-04-07T12:36:01.970Z,22.11
2019-04-07T12:37:06.173Z,22.13
2019-04-07T12:38:02.647Z,22.15
2019-04-07T12:39:01.850Z,22.08
2019-04-07T12:40:01.622Z,22.02
2019-04-07T12:41:13.483Z,22.08
2019-04-07T12:42:05.173Z,22.13
2019-04-07T12:43:02.413Z,22.07
2019-04-07T12:44:01.696Z,22.10
2019-04-07T12:45:01.839Z,22.11
2019-04-07T12:46:02.358Z,22.07
2019-04-07T12:47:01.814Z,22.00
2019-04-07T12:48:01.552Z,22.07
2019-04-07T12:49:05.407Z,22.04
2019-04-07T12:50:02.544Z,22.04
2019-04-07T12:51:01.998Z,22.04
2019-04-07T12:52:01.503Z,22.08